sensor_id;sensor_type;location;lat;lon;timestamp;P1;durP1;ratioP1;P2;durP2;ratioP2
17261;SDS011;9873;52.236;21.002;2022-11-22T00:05:57;58.90;;;26.03;;
17261;SDS011;9873;52.236;21.002;2022-11-22T00:16:00;53.13;;;22.07;;
17261;SDS011;9873;52.236;21.002;2022-11-22T00:26:03;56.57;;;26.83;;
17261;SDS011;9873;52.236;21.002;2022-11-22T00:36:12;64.87;;;27.50;;
17261;SDS011;9873;52.236;21.002;2022-11-22T00:46:17;48.93;;;22.37;;
17261;SDS011;9873;52.236;21.002;2022-11-22T00:56:20;68.53;;;31.23;;
17261;SDS011;9873;52.236;21.002;2022-11-22T01:06:22;63.73;;;28.00;;
17261;SDS011;9873;52.236;21.002;2022-11-22T01:16:24;58.43;;;29.03;;
17261;SDS011;9873;52.236;21.002;2022-11-22T01:26:27;68.30;;;29.23;;
17261;SDS011;9873;52.236;21.002;2022-11-22T01:36:32;62.77;;;29.20;;
17261;SDS011;9873;52.236;21.002;2022-11-22T01:46:37;57.10;;;25.83;;
17261;SDS011;9873;52.236;21.002;2022-11-22T01:56:43;61.87;;;26.43;;
17261;SDS011;9873;52.236;21.002;2022-11-22T02:17:10;69.40;;;27.90;;
17261;SDS011;9873;52.236;21.002;2022-11-22T02:27:15;80.00;;;31.57;;
17261;SDS011;9873;52.236;21.002;2022-11-22T02:37:23;79.80;;;29.40;;
17261;SDS011;9873;52.236;21.002;2022-11-22T02:47:27;74.90;;;29.63;;
17261;SDS011;9873;52.236;21.002;2022-11-22T02:57:29;87.97;;;31.00;;
17261;SDS011;9873;52.236;21.002;2022-11-22T03:07:33;85.07;;;31.27;;
17261;SDS011;9873;52.236;21.002;2022-11-22T03:17:38;74.47;;;28.60;;
17261;SDS011;9873;52.236;21.002;2022-11-22T03:27:42;76.00;;;29.27;;
17261;SDS011;9873;52.236;21.002;2022-11-22T03:37:44;88.77;;;31.67;;
17261;SDS011;9873;52.236;21.002;2022-11-22T03:47:46;87.57;;;30.93;;
17261;SDS011;9873;52.236;21.002;2022-11-22T03:57:51;72.40;;;28.90;;
17261;SDS011;9873;52.236;21.002;2022-11-22T04:07:55;70.37;;;29.23;;
17261;SDS011;9873;52.236;21.002;2022-11-22T04:17:57;59.83;;;25.70;;
17261;SDS011;9873;52.236;21.002;2022-11-22T04:28:03;77.97;;;28.63;;
17261;SDS011;9873;52.236;21.002;2022-11-22T04:38:09;101.97;;;33.13;;
17261;SDS011;9873;52.236;21.002;2022-11-22T04:48:14;81.07;;;25.93;;
17261;SDS011;9873;52.236;21.002;2022-11-22T04:58:17;93.83;;;29.93;;
17261;SDS011;9873;52.236;21.002;2022-11-22T05:08:19;96.80;;;29.10;;
17261;SDS011;9873;52.236;21.002;2022-11-22T05:18:24;100.63;;;34.50;;
17261;SDS011;9873;52.236;21.002;2022-11-22T05:28:28;110.47;;;34.40;;
17261;SDS011;9873;52.236;21.002;2022-11-22T05:38:35;107.43;;;32.63;;
17261;SDS011;9873;52.236;21.002;2022-11-22T05:48:41;120.70;;;34.37;;
17261;SDS011;9873;52.236;21.002;2022-11-22T05:58:44;97.87;;;33.97;;
17261;SDS011;9873;52.236;21.002;2022-11-22T06:08:46;149.80;;;47.47;;
17261;SDS011;9873;52.236;21.002;2022-11-22T06:18:53;117.13;;;32.50;;
17261;SDS011;9873;52.236;21.002;2022-11-22T06:28:55;103.53;;;30.87;;
17261;SDS011;9873;52.236;21.002;2022-11-22T06:39:02;123.60;;;36.20;;
17261;SDS011;9873;52.236;21.002;2022-11-22T06:49:06;103.60;;;33.50;;
17261;SDS011;9873;52.236;21.002;2022-11-22T06:59:11;127.30;;;35.90;;
17261;SDS011;9873;52.236;21.002;2022-11-22T07:09:14;145.37;;;37.63;;
17261;SDS011;9873;52.236;21.002;2022-11-22T07:19:19;139.47;;;35.83;;
17261;SDS011;9873;52.236;21.002;2022-11-22T07:29:24;145.33;;;36.60;;
17261;SDS011;9873;52.236;21.002;2022-11-22T07:39:26;167.13;;;37.20;;
17261;SDS011;9873;52.236;21.002;2022-11-22T07:49:31;145.63;;;35.70;;
17261;SDS011;9873;52.236;21.002;2022-11-22T07:59:33;138.60;;;35.93;;
17261;SDS011;9873;52.236;21.002;2022-11-22T08:09:35;143.73;;;36.60;;
17261;SDS011;9873;52.236;21.002;2022-11-22T08:19:39;137.40;;;34.67;;
17261;SDS011;9873;52.236;21.002;2022-11-22T08:29:44;163.03;;;37.67;;
17261;SDS011;9873;52.236;21.002;2022-11-22T08:39:46;162.20;;;37.77;;
17261;SDS011;9873;52.236;21.002;2022-11-22T08:49:48;141.33;;;38.87;;
17261;SDS011;9873;52.236;21.002;2022-11-22T08:59:50;133.27;;;33.87;;
17261;SDS011;9873;52.236;21.002;2022-11-22T09:09:52;111.23;;;33.07;;
17261;SDS011;9873;52.236;21.002;2022-11-22T09:19:54;118.90;;;34.33;;
17261;SDS011;9873;52.236;21.002;2022-11-22T09:29:56;116.97;;;30.40;;
17261;SDS011;9873;52.236;21.002;2022-11-22T09:39:58;52.57;;;15.70;;
17261;SDS011;9873;52.236;21.002;2022-11-22T10:00:22;118.47;;;34.00;;
17261;SDS011;9873;52.236;21.002;2022-11-22T10:10:28;95.87;;;29.97;;
17261;SDS011;9873;52.236;21.002;2022-11-22T10:20:39;100.00;;;30.00;;
17261;SDS011;9873;52.236;21.002;2022-11-22T10:30:55;115.80;;;36.40;;
17261;SDS011;9873;52.236;21.002;2022-11-22T10:41:06;105.83;;;32.93;;
17261;SDS011;9873;52.236;21.002;2022-11-22T10:51:19;82.20;;;28.57;;
17261;SDS011;9873;52.236;21.002;2022-11-22T11:01:31;70.93;;;25.47;;
17261;SDS011;9873;52.236;21.002;2022-11-22T11:11:43;45.47;;;17.77;;
17261;SDS011;9873;52.236;21.002;2022-11-22T11:21:57;62.27;;;23.30;;
17261;SDS011;9873;52.236;21.002;2022-11-22T11:32:11;62.13;;;22.33;;
17261;SDS011;9873;52.236;21.002;2022-11-22T11:42:21;53.10;;;21.13;;
17261;SDS011;9873;52.236;21.002;2022-11-22T11:52:24;58.17;;;21.90;;
17261;SDS011;9873;52.236;21.002;2022-11-22T12:02:41;42.43;;;14.73;;
17261;SDS011;9873;52.236;21.002;2022-11-22T12:12:51;50.47;;;22.70;;
17261;SDS011;9873;52.236;21.002;2022-11-22T12:23:16;45.30;;;17.30;;
17261;SDS011;9873;52.236;21.002;2022-11-22T12:33:39;50.57;;;20.27;;
17261;SDS011;9873;52.236;21.002;2022-11-22T12:54:03;44.93;;;18.03;;
17261;SDS011;9873;52.236;21.002;2022-11-22T13:14:22;43.93;;;15.90;;
17261;SDS011;9873;52.236;21.002;2022-11-22T13:34:59;39.30;;;16.67;;
17261;SDS011;9873;52.236;21.002;2022-11-22T13:45:21;31.47;;;14.07;;
17261;SDS011;9873;52.236;21.002;2022-11-22T13:55:32;29.80;;;14.13;;
17261;SDS011;9873;52.236;21.002;2022-11-22T14:05:46;34.23;;;14.50;;
17261;SDS011;9873;52.236;21.002;2022-11-22T14:15:53;41.70;;;16.50;;
17261;SDS011;9873;52.236;21.002;2022-11-22T14:26:15;35.93;;;16.13;;
17261;SDS011;9873;52.236;21.002;2022-11-22T14:36:31;36.30;;;16.57;;
17261;SDS011;9873;52.236;21.002;2022-11-22T14:46:37;41.67;;;17.77;;
17261;SDS011;9873;52.236;21.002;2022-11-22T14:56:59;26.73;;;10.00;;
17261;SDS011;9873;52.236;21.002;2022-11-22T15:17:55;39.63;;;15.73;;
17261;SDS011;9873;52.236;21.002;2022-11-22T15:28:23;51.93;;;18.83;;
17261;SDS011;9873;52.236;21.002;2022-11-22T15:38:46;49.77;;;18.77;;
17261;SDS011;9873;52.236;21.002;2022-11-22T15:49:13;51.67;;;21.53;;
17261;SDS011;9873;52.236;21.002;2022-11-22T15:59:42;64.50;;;29.83;;
17261;SDS011;9873;52.236;21.002;2022-11-22T16:09:49;54.83;;;23.60;;
17261;SDS011;9873;52.236;21.002;2022-11-22T16:19:52;45.93;;;19.37;;
17261;SDS011;9873;52.236;21.002;2022-11-22T16:30:15;56.70;;;19.80;;
17261;SDS011;9873;52.236;21.002;2022-11-22T16:40:24;56.10;;;21.83;;
17261;SDS011;9873;52.236;21.002;2022-11-22T16:50:30;52.20;;;21.27;;
17261;SDS011;9873;52.236;21.002;2022-11-22T17:00:32;58.17;;;24.10;;
17261;SDS011;9873;52.236;21.002;2022-11-22T17:10:38;63.00;;;22.70;;
17261;SDS011;9873;52.236;21.002;2022-11-22T17:20:46;67.33;;;25.50;;
17261;SDS011;9873;52.236;21.002;2022-11-22T17:30:48;67.73;;;25.17;;
17261;SDS011;9873;52.236;21.002;2022-11-22T17:40:59;71.33;;;27.43;;
17261;SDS011;9873;52.236;21.002;2022-11-22T17:51:04;70.03;;;26.93;;
17261;SDS011;9873;52.236;21.002;2022-11-22T18:01:19;42.10;;;15.80;;
17261;SDS011;9873;52.236;21.002;2022-11-22T18:11:25;63.93;;;24.83;;
17261;SDS011;9873;52.236;21.002;2022-11-22T18:21:28;72.47;;;27.50;;
17261;SDS011;9873;52.236;21.002;2022-11-22T18:31:31;66.47;;;28.13;;
17261;SDS011;9873;52.236;21.002;2022-11-22T18:41:55;61.30;;;22.17;;
17261;SDS011;9873;52.236;21.002;2022-11-22T18:51:59;76.13;;;30.23;;
17261;SDS011;9873;52.236;21.002;2022-11-22T19:02:06;69.53;;;23.07;;
17261;SDS011;9873;52.236;21.002;2022-11-22T19:12:09;60.80;;;25.67;;
17261;SDS011;9873;52.236;21.002;2022-11-22T19:22:13;55.80;;;22.13;;
17261;SDS011;9873;52.236;21.002;2022-11-22T19:32:18;76.67;;;29.17;;
17261;SDS011;9873;52.236;21.002;2022-11-22T19:42:23;61.63;;;21.37;;
17261;SDS011;9873;52.236;21.002;2022-11-22T19:52:27;68.43;;;25.70;;
17261;SDS011;9873;52.236;21.002;2022-11-22T20:02:31;73.30;;;27.20;;
17261;SDS011;9873;52.236;21.002;2022-11-22T20:12:36;70.77;;;27.70;;
17261;SDS011;9873;52.236;21.002;2022-11-22T20:22:39;70.53;;;27.93;;
17261;SDS011;9873;52.236;21.002;2022-11-22T20:32:44;68.80;;;25.73;;
17261;SDS011;9873;52.236;21.002;2022-11-22T20:42:47;67.47;;;25.57;;
17261;SDS011;9873;52.236;21.002;2022-11-22T20:52:52;79.00;;;28.23;;
17261;SDS011;9873;52.236;21.002;2022-11-22T21:02:57;80.17;;;31.27;;
17261;SDS011;9873;52.236;21.002;2022-11-22T21:13:06;71.83;;;24.90;;
17261;SDS011;9873;52.236;21.002;2022-11-22T21:23:16;62.90;;;22.93;;
17261;SDS011;9873;52.236;21.002;2022-11-22T21:33:23;71.53;;;27.17;;
17261;SDS011;9873;52.236;21.002;2022-11-22T21:43:27;67.17;;;24.73;;
17261;SDS011;9873;52.236;21.002;2022-11-22T21:53:37;69.77;;;25.00;;
17261;SDS011;9873;52.236;21.002;2022-11-22T22:03:41;61.83;;;23.80;;
17261;SDS011;9873;52.236;21.002;2022-11-22T22:13:44;59.83;;;22.53;;
17261;SDS011;9873;52.236;21.002;2022-11-22T22:23:49;67.43;;;23.33;;
17261;SDS011;9873;52.236;21.002;2022-11-22T22:33:54;70.60;;;23.20;;
17261;SDS011;9873;52.236;21.002;2022-11-22T22:44:01;46.23;;;17.73;;
17261;SDS011;9873;52.236;21.002;2022-11-22T22:54:05;56.17;;;19.33;;
17261;SDS011;9873;52.236;21.002;2022-11-22T23:04:10;22.43;;;7.73;;
17261;SDS011;9873;52.236;21.002;2022-11-22T23:14:14;34.93;;;13.57;;
17261;SDS011;9873;52.236;21.002;2022-11-22T23:24:22;74.47;;;24.50;;
17261;SDS011;9873;52.236;21.002;2022-11-22T23:34:26;78.30;;;26.93;;
17261;SDS011;9873;52.236;21.002;2022-11-22T23:44:32;62.40;;;21.93;;
17261;SDS011;9873;52.236;21.002;2022-11-22T23:54:36;72.13;;;25.17;;
